Time;durP1;ratioP1;P1;durP2;ratioP2;P2;SDS_P1;SDS_P2;PMS_P1;PMS_P2;Temp;Humidity;BMP_temperature;BMP_pressure;BME280_temperature;BME280_humidity;BME280_pressure;Samples;Min_cycle;Max_cycle;Signal;HPM_P1;HPM_P2
2022/09/15 00:02:08;;;;;;;6.53;4.03;;;19.00;1.00;;;;;;4975604;28;20404;-63
2022/09/15 00:04:35;;;;;;;5.43;3.77;;;19.00;1.00;;;;;;4975450;28;20674;-63
2022/09/15 00:07:01;;;;;;;5.93;3.97;;;18.90;1.00;;;;;;4975691;28;20794;-63
2022/09/15 00:09:27;;;;;;;6.33;4.00;;;18.90;1.00;;;;;;4975508;28;20416;-63
2022/09/15 00:11:52;;;;;;;5.83;3.63;;;18.90;1.00;;;;;;4976131;28;20208;-63
2022/09/15 00:14:18;;;;;;;9.00;3.70;;;18.90;1.00;;;;;;4975349;28;20280;-63
2022/09/15 00:16:44;;;;;;;7.13;3.50;;;18.90;1.00;;;;;;4975553;28;20178;-63
2022/09/15 00:19:10;;;;;;;8.80;3.90;;;18.90;1.00;;;;;;4975279;28;20189;-63
2022/09/15 00:21:39;;;;;;;8.77;4.10;;;19.00;1.00;;;;;;4975399;28;20170;-63
2022/09/15 00:24:05;;;;;;;7.60;4.03;;;19.00;1.00;;;;;;4975345;28;20688;-64
2022/09/15 00:26:31;;;;;;;5.43;4.00;;;19.00;1.00;;;;;;4975203;28;20520;-63
2022/09/15 00:28:58;;;;;;;7.87;3.60;;;19.00;1.00;;;;;;4975084;28;20936;-64
2022/09/15 00:31:25;;;;;;;11.63;4.23;;;19.00;1.00;;;;;;4975140;28;20854;-63
2022/09/15 00:33:56;;;;;;;5.67;3.43;;;19.00;1.00;;;;;;4974980;28;20421;-63
2022/09/15 00:36:23;;;;;;;5.90;4.37;;;19.00;1.00;;;;;;4973814;28;20432;-64
2022/09/15 00:38:50;;;;;;;5.33;3.50;;;19.00;1.00;;;;;;4975125;28;20448;-63
2022/09/15 00:41:17;;;;;;;4.47;3.40;;;19.00;1.00;;;;;;4975877;28;20404;-64
2022/09/15 00:43:56;;;;;;;3.37;2.83;;;19.10;1.00;;;;;;4976867;28;20895;-64
2022/09/15 00:46:44;;;;;;;5.03;3.50;;;19.10;1.00;;;;;;4977251;28;20776;-64
2022/09/15 00:49:34;;;;;;;8.20;3.70;;;19.10;1.00;;;;;;4975405;28;20932;-63
2022/09/15 00:52:12;;;;;;;4.50;3.20;;;19.20;1.00;;;;;;4967546;28;20492;-63
2022/09/15 00:55:04;;;;;;;3.93;3.13;;;19.20;1.00;;;;;;4973578;28;20474;-63
2022/09/15 00:57:56;;;;;;;3.10;2.50;;;19.20;1.00;;;;;;4975048;28;20896;-63
2022/09/15 01:00:24;;;;;;;3.50;2.77;;;19.20;1.00;;;;;;4966562;28;20417;-63
2022/09/15 01:02:50;;;;;;;3.83;3.17;;;19.20;1.00;;;;;;4974486;28;20424;-63
2022/09/15 01:05:20;;;;;;;6.07;3.53;;;19.20;1.00;;;;;;4974331;28;20424;-63
2022/09/15 01:07:51;;;;;;;3.20;2.60;;;19.10;1.00;;;;;;4974363;28;20252;-63
2022/09/15 01:10:27;;;;;;;5.40;3.30;;;19.10;1.00;;;;;;4974282;28;20397;-63
2022/09/15 01:12:56;;;;;;;10.10;3.30;;;19.20;1.00;;;;;;4974484;28;20511;-63
2022/09/15 01:15:27;;;;;;;8.37;3.40;;;19.20;1.00;;;;;;4974203;28;20429;-63
2022/09/15 01:18:40;;;;;;;8.83;3.57;;;19.20;1.00;;;;;;4974321;28;20948;-63
2022/09/15 01:21:16;;;;;;;5.70;3.23;;;19.10;1.00;;;;;;4968845;28;20909;-63
2022/09/15 01:23:55;;;;;;;7.60;3.37;;;19.10;1.00;;;;;;4974435;28;20910;-63
2022/09/15 01:26:41;;;;;;;6.53;3.67;;;19.10;1.00;;;;;;4974118;28;20412;-62
2022/09/15 01:29:41;;;;;;;5.77;2.97;;;19.10;1.00;;;;;;4974228;28;20389;-63
2022/09/15 01:35:24;;;;;;;7.50;4.00;;;19.10;1.00;;;;;;4973997;28;20516;-63
2022/09/15 01:37:58;;;;;;;4.67;2.50;;;19.00;1.00;;;;;;4973623;28;20497;-64
2022/09/15 01:40:28;;;;;;;3.33;2.60;;;19.00;1.00;;;;;;4973943;28;20914;-63
2022/09/15 01:42:55;;;;;;;6.03;2.60;;;19.00;1.00;;;;;;4973834;28;20492;-63
2022/09/15 01:45:25;;;;;;;5.10;2.70;;;19.00;1.00;;;;;;4973566;28;21005;-63
2022/09/15 01:47:54;;;;;;;10.23;3.30;;;19.00;1.00;;;;;;4974210;28;20409;-63
2022/09/15 01:50:25;;;;;;;4.00;2.50;;;18.90;1.00;;;;;;4973683;28;20417;-63
2022/09/15 01:52:55;;;;;;;4.73;2.50;;;18.90;1.00;;;;;;4973799;28;20547;-64
2022/09/15 01:55:48;;;;;;;5.10;2.50;;;19.00;1.00;;;;;;4974103;28;20757;-64
2022/09/15 01:58:13;;;;;;;2.80;2.50;;;18.90;1.00;;;;;;4973072;28;20488;-63
2022/09/15 02:00:44;;;;;;;6.53;3.73;;;18.90;1.00;;;;;;4974191;28;20493;-63
2022/09/15 02:03:25;;;;;;;7.27;2.97;;;18.80;1.00;;;;;;4974011;28;20616;-63
2022/09/15 02:06:01;;;;;;;5.83;2.80;;;18.90;1.00;;;;;;4973549;28;20910;-63
2022/09/15 02:08:34;;;;;;;3.70;2.40;;;18.80;1.00;;;;;;4973566;28;20464;-63
2022/09/15 02:11:09;;;;;;;3.30;2.37;;;18.80;1.00;;;;;;4973311;28;20480;-63
2022/09/15 02:13:44;;;;;;;7.60;3.20;;;18.80;1.00;;;;;;4973373;28;20435;-62
2022/09/15 02:16:18;;;;;;;4.27;2.70;;;18.80;1.00;;;;;;4972913;28;20762;-63
2022/09/15 02:19:01;;;;;;;5.73;2.70;;;18.80;1.00;;;;;;4973185;28;20507;-63
2022/09/15 02:21:36;;;;;;;4.20;2.87;;;18.70;1.00;;;;;;4973136;28;20513;-63
2022/09/15 02:24:09;;;;;;;7.37;3.07;;;18.70;1.00;;;;;;4973087;28;20427;-63
2022/09/15 02:26:39;;;;;;;3.20;2.80;;;18.70;1.00;;;;;;4972990;28;20969;-63
2022/09/15 02:29:10;;;;;;;6.50;2.57;;;18.70;1.00;;;;;;4972862;28;20504;-63
2022/09/15 02:31:38;;;;;;;3.27;2.20;;;18.70;1.00;;;;;;4973249;28;20484;-63
2022/09/15 02:34:15;;;;;;;4.40;2.80;;;18.70;1.00;;;;;;4972918;28;20433;-63
2022/09/15 02:36:42;;;;;;;6.87;2.10;;;18.70;1.00;;;;;;4972600;28;20878;-65
2022/09/15 02:39:12;;;;;;;4.30;2.40;;;18.60;1.00;;;;;;4972003;28;20459;-64
2022/09/15 02:41:39;;;;;;;3.50;2.03;;;18.60;1.00;;;;;;4972306;28;20780;-64
2022/09/15 02:44:06;;;;;;;3.60;2.60;;;18.60;1.00;;;;;;4972603;28;20449;-65
2022/09/15 02:46:33;;;;;;;9.03;2.43;;;18.60;1.00;;;;;;4972343;28;20433;-65
2022/09/15 02:48:58;;;;;;;5.77;2.53;;;18.60;1.00;;;;;;4972291;28;20401;-64
2022/09/15 02:51:24;;;;;;;4.33;2.50;;;18.60;1.00;;;;;;4972067;28;20265;-65
2022/09/15 02:53:51;;;;;;;5.03;2.90;;;18.50;1.00;;;;;;4972054;28;20228;-65
2022/09/15 02:56:17;;;;;;;4.67;2.73;;;18.50;1.00;;;;;;4972180;28;20417;-65
2022/09/15 02:58:42;;;;;;;9.30;2.73;;;18.50;1.00;;;;;;4971767;28;20460;-65
2022/09/15 03:01:13;;;;;;;3.47;2.90;;;18.50;1.00;;;;;;4971951;28;20181;-64
2022/09/15 03:03:40;;;;;;;6.23;3.40;;;18.50;1.00;;;;;;4972100;28;20189;-64
2022/09/15 03:06:15;;;;;;;8.73;3.97;;;18.40;1.00;;;;;;4972019;28;20409;-65
2022/09/15 03:08:48;;;;;;;4.63;3.10;;;18.50;1.00;;;;;;4971997;28;20417;-65
2022/09/15 03:11:14;;;;;;;3.90;2.60;;;18.40;1.00;;;;;;4971990;28;20878;-65
2022/09/15 03:13:40;;;;;;;5.80;3.17;;;18.40;1.00;;;;;;4970541;28;20471;-65
2022/09/15 03:16:11;;;;;;;5.30;2.97;;;18.50;1.00;;;;;;4971840;28;20420;-65
2022/09/15 03:18:38;;;;;;;9.43;3.80;;;18.50;1.00;;;;;;4971471;28;20538;-64
2022/09/15 03:21:06;;;;;;;16.27;3.40;;;18.50;1.00;;;;;;4972006;28;20772;-64
2022/09/15 03:23:31;;;;;;;5.90;3.30;;;18.40;1.00;;;;;;4971715;28;20449;-64
2022/09/15 03:26:00;;;;;;;5.40;3.30;;;18.40;1.00;;;;;;4972075;28;20431;-64
2022/09/15 03:28:27;;;;;;;12.33;4.27;;;18.40;1.00;;;;;;4970510;28;20232;-65
2022/09/15 03:30:53;;;;;;;3.90;2.60;;;18.40;1.00;;;;;;4971926;28;20416;-64
2022/09/15 03:33:20;;;;;;;3.83;2.93;;;18.40;1.00;;;;;;4971632;28;20420;-65
2022/09/15 03:35:47;;;;;;;3.60;2.60;;;18.40;1.00;;;;;;4971660;28;20420;-65
2022/09/15 03:38:13;;;;;;;7.63;3.30;;;18.40;1.00;;;;;;4971533;28;20874;-65
2022/09/15 03:40:41;;;;;;;7.37;2.67;;;18.50;1.00;;;;;;4971822;28;20878;-65
2022/09/15 03:43:08;;;;;;;6.57;3.00;;;18.40;1.00;;;;;;4971536;28;20416;-65
2022/09/15 03:45:33;;;;;;;5.30;2.67;;;18.30;1.00;;;;;;4971826;28;20944;-64
2022/09/15 03:47:59;;;;;;;3.90;2.70;;;18.20;1.00;;;;;;4971581;28;20421;-65
2022/09/15 03:50:25;;;;;;;4.67;2.97;;;18.30;1.00;;;;;;4971423;28;20192;-65
2022/09/15 03:52:51;;;;;;;13.57;3.37;;;18.30;1.00;;;;;;4971583;28;20220;-65
2022/09/15 03:55:16;;;;;;;4.33;3.23;;;18.30;1.00;;;;;;4971300;28;20200;-64
2022/09/15 03:57:42;;;;;;;7.20;3.37;;;18.30;1.00;;;;;;4971342;28;20272;-65
2022/09/15 04:00:08;;;;;;;6.57;3.30;;;18.30;1.00;;;;;;4971585;28;20173;-65
2022/09/15 04:02:34;;;;;;;5.77;3.00;;;18.40;1.00;;;;;;4971624;28;20170;-64
2022/09/15 04:04:59;;;;;;;8.37;2.93;;;18.40;1.00;;;;;;4971744;28;20508;-65
2022/09/15 04:07:25;;;;;;;4.43;2.70;;;18.30;1.00;;;;;;4971242;28;20181;-64
2022/09/15 04:09:51;;;;;;;67.13;8.30;;;18.30;1.00;;;;;;4971351;28;20177;-64
2022/09/15 04:12:16;;;;;;;6.23;3.40;;;18.40;1.00;;;;;;4971289;28;20204;-64
2022/09/15 04:14:42;;;;;;;8.30;2.70;;;18.40;1.00;;;;;;4971258;28;20697;-64
2022/09/15 04:17:09;;;;;;;7.57;3.00;;;18.40;1.00;;;;;;4971164;28;20563;-65
2022/09/15 04:19:35;;;;;;;8.30;3.30;;;18.30;1.00;;;;;;4969655;28;20213;-65
2022/09/15 04:22:01;;;;;;;10.10;2.83;;;18.40;1.00;;;;;;4971358;28;20942;-65
2022/09/15 04:24:27;;;;;;;4.83;2.50;;;18.40;1.00;;;;;;4971544;28;20516;-63
2022/09/15 04:26:53;;;;;;;7.40;2.87;;;18.40;1.00;;;;;;4969886;28;20690;-63
2022/09/15 04:29:19;;;;;;;6.23;2.87;;;18.30;1.00;;;;;;4970416;28;20276;-63
2022/09/15 04:31:45;;;;;;;3.17;2.40;;;18.30;1.00;;;;;;4971051;28;20173;-63
2022/09/15 04:34:11;;;;;;;3.30;2.43;;;18.30;1.00;;;;;;4971308;28;20464;-63
2022/09/15 04:36:37;;;;;;;8.37;2.60;;;18.30;1.00;;;;;;4971268;28;20445;-61
2022/09/15 04:39:04;;;;;;;13.93;3.07;;;18.30;1.00;;;;;;4971363;28;20208;-62
2022/09/15 04:41:29;;;;;;;7.50;2.37;;;18.30;1.00;;;;;;4974712;28;20566;-63
2022/09/15 04:43:55;;;;;;;10.20;3.60;;;18.40;1.00;;;;;;4974842;28;20463;-63
2022/09/15 04:46:21;;;;;;;21.73;4.40;;;18.40;1.00;;;;;;4972857;28;20186;-63
2022/09/15 04:48:47;;;;;;;16.83;3.60;;;18.40;1.00;;;;;;4972724;28;20177;-63
2022/09/15 04:51:16;;;;;;;5.27;2.80;;;18.40;1.00;;;;;;4972603;28;20200;-64
2022/09/15 04:53:43;;;;;;;7.13;3.17;;;18.40;1.00;;;;;;4972418;28;20560;-63
2022/09/15 04:56:17;;;;;;;10.77;3.73;;;18.30;1.00;;;;;;4972268;28;20428;-64
2022/09/15 04:58:45;;;;;;;8.53;3.83;;;18.30;1.00;;;;;;4971929;28;20763;-64
2022/09/15 05:01:14;;;;;;;12.20;3.47;;;18.20;1.00;;;;;;4972234;28;20459;-64
2022/09/15 05:03:41;;;;;;;12.13;3.93;;;18.20;1.00;;;;;;4979226;28;20436;-65
2022/09/15 05:06:09;;;;;;;4.43;2.80;;;18.40;1.00;;;;;;4981682;28;20460;-65
2022/09/15 05:08:35;;;;;;;7.80;3.33;;;18.40;1.00;;;;;;4974579;28;20785;-64
2022/09/15 05:11:03;;;;;;;26.03;5.33;;;18.40;1.00;;;;;;4971468;28;20926;-65
2022/09/15 05:13:29;;;;;;;12.87;4.40;;;18.40;1.00;;;;;;4987393;28;20451;-64
2022/09/15 05:15:54;;;;;;;9.80;3.30;;;18.40;1.00;;;;;;4974651;28;20897;-65
2022/09/15 05:18:20;;;;;;;6.87;2.90;;;18.40;1.00;;;;;;4981199;28;20589;-64
2022/09/15 05:20:46;;;;;;;11.13;2.83;;;18.60;1.00;;;;;;4976785;28;20190;-66
2022/09/15 05:23:11;;;;;;;9.93;2.83;;;18.90;1.00;;;;;;4974204;28;20324;-67
2022/09/15 05:25:37;;;;;;;37.77;5.07;;;19.00;1.00;;;;;;4976952;28;20193;-67
2022/09/15 05:28:04;;;;;;;22.70;3.83;;;19.10;1.00;;;;;;4977950;28;20220;-67
2022/09/15 05:30:29;;;;;;;20.53;4.33;;;19.20;99.90;;;;;;4977388;28;20516;-67
2022/09/15 05:32:55;;;;;;;16.63;3.53;;;19.30;99.90;;;;;;4983782;28;20443;-67
2022/09/15 05:35:22;;;;;;;15.80;4.10;;;19.30;99.90;;;;;;4990672;28;20201;-66
2022/09/15 05:37:48;;;;;;;12.43;3.57;;;19.10;99.90;;;;;;4990605;28;20205;-66
2022/09/15 05:40:14;;;;;;;9.23;3.23;;;18.90;1.00;;;;;;4990499;28;20519;-66
2022/09/15 05:42:40;;;;;;;10.70;3.80;;;18.70;1.00;;;;;;4980558;28;20181;-66
2022/09/15 05:45:06;;;;;;;12.37;4.13;;;18.60;1.00;;;;;;4986256;28;20213;-66
2022/09/15 05:47:32;;;;;;;4.97;2.70;;;18.50;1.00;;;;;;4990640;28;20272;-66
2022/09/15 05:49:57;;;;;;;6.47;2.90;;;18.40;1.00;;;;;;4989649;28;20413;-66
2022/09/15 05:52:23;;;;;;;6.90;3.00;;;18.40;1.00;;;;;;4975570;28;20532;-66
2022/09/15 05:54:49;;;;;;;6.30;3.37;;;18.40;1.00;;;;;;4974509;28;20201;-66
2022/09/15 05:57:14;;;;;;;6.97;3.10;;;18.50;1.00;;;;;;4982702;28;20354;-66
2022/09/15 05:59:42;;;;;;;5.57;2.90;;;18.40;1.00;;;;;;4974501;28;20223;-66
2022/09/15 06:02:10;;;;;;;16.17;4.50;;;18.40;1.00;;;;;;4979312;28;20785;-66
2022/09/15 06:04:35;;;;;;;18.50;3.90;;;18.50;1.00;;;;;;4970738;28;20429;-66
2022/09/15 06:07:01;;;;;;;28.63;4.57;;;18.40;1.00;;;;;;4968395;28;20909;-65
2022/09/15 06:09:27;;;;;;;32.43;5.70;;;18.50;1.00;;;;;;4978560;28;20192;-65
2022/09/15 06:11:52;;;;;;;20.17;3.40;;;18.60;1.00;;;;;;4970858;28;20178;-66
2022/09/15 06:14:18;;;;;;;17.77;4.63;;;18.50;1.00;;;;;;4970906;28;20284;-66
2022/09/15 06:16:44;;;;;;;9.30;3.70;;;18.50;1.00;;;;;;4970510;28;20181;-67
2022/09/15 06:19:10;;;;;;;14.17;4.23;;;18.50;1.00;;;;;;4981354;28;20204;-68
2022/09/15 06:21:35;;;;;;;6.13;3.50;;;18.70;1.00;;;;;;4990372;28;20752;-68
2022/09/15 06:24:05;;;;;;;17.63;5.87;;;18.70;1.00;;;;;;4990239;28;20185;-67
2022/09/15 06:26:32;;;;;;;8.23;3.40;;;18.60;1.00;;;;;;4981225;28;20655;-68
2022/09/15 06:29:00;;;;;;;14.53;3.80;;;18.60;1.00;;;;;;4976451;28;20459;-67
2022/09/15 06:31:28;;;;;;;67.70;11.00;;;18.50;1.00;;;;;;4972687;28;20421;-67
2022/09/15 06:33:55;;;;;;;22.87;5.07;;;18.50;1.00;;;;;;4972615;28;20488;-68
2022/09/15 06:36:23;;;;;;;20.47;3.80;;;18.40;1.00;;;;;;4972372;28;20452;-67
2022/09/15 06:38:50;;;;;;;23.87;5.07;;;18.50;1.00;;;;;;4979140;28;20461;-67
2022/09/15 06:41:16;;;;;;;24.00;5.70;;;18.50;1.00;;;;;;4972588;28;20420;-67
2022/09/15 06:43:42;;;;;;;10.63;3.67;;;18.50;1.00;;;;;;4972362;28;20453;-67
2022/09/15 06:46:10;;;;;;;11.43;3.53;;;18.50;1.00;;;;;;4968501;28;20205;-67
2022/09/15 06:48:37;;;;;;;6.80;3.13;;;18.50;1.00;;;;;;4983018;28;20877;-67
2022/09/15 06:51:04;;;;;;;10.37;3.23;;;18.50;1.00;;;;;;4991778;28;20836;-67
2022/09/15 06:53:32;;;;;;;9.20;3.20;;;18.60;1.00;;;;;;4990489;28;20435;-67
2022/09/15 06:56:02;;;;;;;20.17;5.87;;;18.60;1.00;;;;;;4983958;28;20928;-67
2022/09/15 06:58:28;;;;;;;28.90;5.40;;;18.60;1.00;;;;;;4972392;28;20555;-67
2022/09/15 07:00:54;;;;;;;16.73;4.40;;;18.70;1.00;;;;;;4972403;28;20417;-67
2022/09/15 07:03:20;;;;;;;19.90;5.00;;;18.70;1.00;;;;;;4972494;28;20409;-67
2022/09/15 07:05:46;;;;;;;44.80;7.20;;;18.80;1.00;;;;;;4972091;28;20205;-67
2022/09/15 07:08:12;;;;;;;7.63;4.00;;;18.90;1.00;;;;;;4972044;28;20256;-67
2022/09/15 07:10:37;;;;;;;9.20;3.90;;;19.00;1.00;;;;;;4972725;28;20881;-67
2022/09/15 07:13:03;;;;;;;11.53;4.80;;;19.10;1.00;;;;;;4972725;28;20205;-69
2022/09/15 07:15:30;;;;;;;13.73;4.73;;;19.10;1.00;;;;;;4972581;28;20205;-67
2022/09/15 07:17:55;;;;;;;9.00;4.03;;;19.10;1.00;;;;;;4971964;28;20213;-67
2022/09/15 07:20:21;;;;;;;9.10;4.60;;;19.10;1.00;;;;;;4972151;28;20751;-67
2022/09/15 07:22:47;;;;;;;17.00;5.83;;;19.30;1.00;;;;;;4972472;28;20205;-67
2022/09/15 07:25:13;;;;;;;12.07;5.13;;;19.30;1.00;;;;;;4972620;28;20662;-67
2022/09/15 07:27:39;;;;;;;15.93;4.50;;;19.20;1.00;;;;;;4973544;28;20180;-67
2022/09/15 07:30:07;;;;;;;9.03;3.77;;;19.20;1.00;;;;;;4973725;28;20173;-67
2022/09/15 07:32:33;;;;;;;6.50;3.70;;;19.20;1.00;;;;;;4973234;28;20654;-66
2022/09/15 07:34:58;;;;;;;8.70;3.20;;;19.20;1.00;;;;;;4973011;28;20437;-67
2022/09/15 07:37:24;;;;;;;9.90;3.40;;;19.30;1.00;;;;;;4973429;28;20610;-67
2022/09/15 07:39:50;;;;;;;7.30;2.67;;;19.30;1.00;;;;;;4973559;28;20201;-67
2022/09/15 07:42:15;;;;;;;4.67;2.63;;;19.30;1.00;;;;;;4973524;28;20743;-67
2022/09/15 07:44:41;;;;;;;36.17;5.83;;;19.40;1.00;;;;;;4973090;28;20220;-67
2022/09/15 07:47:07;;;;;;;20.87;4.70;;;19.50;1.00;;;;;;4972168;28;20174;-66
2022/09/15 07:49:33;;;;;;;6.57;2.70;;;19.50;1.00;;;;;;4971910;28;20561;-66
2022/09/15 07:51:59;;;;;;;5.30;1.90;;;19.50;1.00;;;;;;4972094;28;20763;-66
2022/09/15 07:54:25;;;;;;;9.50;2.60;;;19.60;1.00;;;;;;4971972;28;20740;-66
2022/09/15 07:56:51;;;;;;;7.47;2.60;;;19.80;1.00;;;;;;4971874;28;20567;-67
2022/09/15 07:59:16;;;;;;;10.67;2.47;;;20.00;99.90;;;;;;4971643;28;20209;-66
2022/09/15 08:01:42;;;;;;;7.00;2.10;;;20.30;43.40;;;;;;4971758;28;20170;-67
2022/09/15 08:04:08;;;;;;;6.00;2.57;;;20.40;1.00;;;;;;4971817;28;20198;-66
2022/09/15 08:06:33;;;;;;;6.90;3.20;;;20.50;1.00;;;;;;4971836;28;20187;-67
2022/09/15 08:09:00;;;;;;;3.73;2.33;;;20.40;1.00;;;;;;4971533;28;20197;-67
2022/09/15 08:11:27;;;;;;;6.87;3.10;;;20.50;99.90;;;;;;4971885;28;20174;-66
2022/09/15 08:13:52;;;;;;;8.97;2.47;;;20.50;1.00;;;;;;4973215;28;20921;-67
2022/09/15 08:16:21;;;;;;;5.43;3.10;;;20.60;1.00;;;;;;4975557;28;20420;-67
2022/09/15 08:18:47;;;;;;;12.73;2.70;;;20.70;1.00;;;;;;4975024;28;20220;-67
2022/09/15 08:21:16;;;;;;;6.00;2.60;;;21.10;99.90;;;;;;4975521;28;20417;-66
2022/09/15 08:23:42;;;;;;;19.87;4.20;;;21.40;99.90;;;;;;4975211;28;20520;-67
2022/09/15 08:26:09;;;;;;;6.93;2.60;;;21.60;1.00;;;;;;4974959;28;20463;-66
2022/09/15 08:28:36;;;;;;;15.77;3.40;;;21.60;99.90;;;;;;4974806;28;20807;-66
2022/09/15 08:31:06;;;;;;;13.30;3.00;;;21.70;1.00;;;;;;4974979;28;20425;-66
2022/09/15 08:33:33;;;;;;;19.57;4.07;;;21.60;99.90;;;;;;4974777;28;20448;-66
2022/09/15 08:36:09;;;;;;;12.57;2.63;;;21.50;99.90;;;;;;4975160;28;20413;-66
2022/09/15 08:38:38;;;;;;;8.30;2.57;;;21.50;5.70;;;;;;4974474;28;20518;-66
2022/09/15 08:41:08;;;;;;;25.00;4.73;;;21.50;1.00;;;;;;4974676;28;20412;-66
2022/09/15 08:44:07;;;;;;;8.87;2.50;;;21.40;56.10;;;;;;4974997;28;20941;-67
2022/09/15 08:46:49;;;;;;;9.80;3.37;;;21.20;99.90;;;;;;4942197;28;20417;-67
2022/09/15 08:49:39;;;;;;;9.37;2.90;;;21.20;99.90;;;;;;4974435;28;20511;-66
2022/09/15 08:52:12;;;;;;;6.23;2.70;;;21.10;99.90;;;;;;4975094;28;20512;-67
2022/09/15 08:54:38;;;;;;;11.53;2.63;;;21.10;99.90;;;;;;4974461;28;20536;-67
2022/09/15 08:57:05;;;;;;;17.23;3.30;;;21.20;1.00;;;;;;4974276;28;20493;-67
2022/09/15 08:59:38;;;;;;;4.70;3.10;;;21.20;1.00;;;;;;4974447;28;20240;-67
2022/09/15 09:02:35;;;;;;;5.53;2.40;;;21.30;1.00;;;;;;4974477;28;20814;-67
2022/09/15 09:05:29;;;;;;;4.90;2.10;;;21.40;99.90;;;;;;4974200;28;20516;-67
2022/09/15 09:08:18;;;;;;;6.30;2.53;;;21.50;99.90;;;;;;4974307;28;20723;-67
2022/09/15 09:10:51;;;;;;;10.73;2.47;;;21.40;99.90;;;;;;4974235;28;20455;-67
2022/09/15 09:13:25;;;;;;;5.97;2.00;;;21.40;99.90;;;;;;4974473;28;20409;-67
2022/09/15 09:16:25;;;;;;;11.37;3.77;;;21.30;99.90;;;;;;4974587;28;20432;-68
2022/09/15 09:18:51;;;;;;;10.00;3.40;;;21.40;99.90;;;;;;4973658;28;20492;-67
2022/09/15 09:21:25;;;;;;;8.07;2.30;;;21.30;99.90;;;;;;4974199;28;20443;-67
2022/09/15 09:24:04;;;;;;;12.73;3.23;;;21.20;99.90;;;;;;4973954;28;20606;-67
2022/09/15 09:26:33;;;;;;;8.63;2.20;;;21.30;99.90;;;;;;4973796;28;20463;-67
2022/09/15 09:29:26;;;;;;;18.20;3.60;;;21.10;99.90;;;;;;4973442;28;20484;-67
2022/09/15 09:31:54;;;;;;;9.27;2.70;;;21.00;1.00;;;;;;4973778;28;20823;-68
2022/09/15 09:34:41;;;;;;;16.27;3.13;;;21.00;1.00;;;;;;4973663;28;20429;-67
2022/09/15 09:37:14;;;;;;;6.53;2.33;;;21.00;1.00;;;;;;4973929;28;20409;-67
2022/09/15 09:39:40;;;;;;;6.80;2.40;;;20.90;1.00;;;;;;4973483;28;20456;-67
2022/09/15 09:42:14;;;;;;;7.43;2.20;;;20.80;1.00;;;;;;4972307;28;20413;-67
2022/09/15 09:44:40;;;;;;;12.40;2.40;;;20.70;99.90;;;;;;4973552;28;20453;-67
2022/09/15 09:47:06;;;;;;;9.10;3.07;;;20.70;99.90;;;;;;4973459;28;20459;-67
2022/09/15 09:49:48;;;;;;;27.77;4.67;;;20.70;99.90;;;;;;4973485;28;20269;-67
2022/09/15 09:52:33;;;;;;;25.10;3.80;;;20.70;1.00;;;;;;4973572;28;20443;-67
2022/09/15 09:55:01;;;;;;;11.83;2.63;;;20.70;1.00;;;;;;4973270;28;20445;-67
2022/09/15 09:57:30;;;;;;;2.97;1.90;;;20.60;1.00;;;;;;4973414;28;20416;-67
2022/09/15 09:59:56;;;;;;;10.57;2.40;;;20.70;99.90;;;;;;4973039;28;20417;-67
2022/09/15 10:02:26;;;;;;;5.37;1.53;;;20.60;1.00;;;;;;4973398;28;20906;-67
2022/09/15 10:04:54;;;;;;;4.07;1.90;;;20.70;99.90;;;;;;4973963;28;20437;-67
2022/09/15 10:07:25;;;;;;;3.67;1.50;;;20.50;1.00;;;;;;4973287;28;20409;-68
2022/09/15 10:09:57;;;;;;;6.23;1.77;;;20.60;99.90;;;;;;4973135;28;20409;-68
2022/09/15 10:12:32;;;;;;;7.60;1.90;;;20.60;1.00;;;;;;4973281;28;20413;-66
2022/09/15 10:15:04;;;;;;;19.57;3.00;;;20.70;1.00;;;;;;4973024;28;20606;-66
2022/09/15 10:17:38;;;;;;;18.20;2.63;;;20.60;1.00;;;;;;4972994;28;20412;-66
2022/09/15 10:20:18;;;;;;;12.90;2.17;;;20.60;99.90;;;;;;4973175;28;20417;-67
2022/09/15 10:22:44;;;;;;;19.03;4.00;;;20.60;99.90;;;;;;4972925;28;20405;-67
2022/09/15 10:25:19;;;;;;;16.50;2.70;;;20.60;1.00;;;;;;4972755;28;20428;-67
2022/09/15 10:28:12;;;;;;;21.20;3.30;;;20.60;1.00;;;;;;4972898;28;20169;-66
2022/09/15 10:30:58;;;;;;;67.43;7.70;;;20.60;1.00;;;;;;4972862;28;20429;-68
2022/09/15 10:33:27;;;;;;;17.73;3.00;;;20.60;1.00;;;;;;4972817;28;20433;-67
2022/09/15 10:35:58;;;;;;;9.93;2.43;;;20.60;49.30;;;;;;4972238;28;20451;-67
2022/09/15 10:38:44;;;;;;;10.17;2.07;;;20.60;79.10;;;;;;4972152;28;20472;-67
2022/09/15 10:41:30;;;;;;;15.53;2.73;;;20.60;99.90;;;;;;4972823;28;20472;-67
2022/09/15 10:44:13;;;;;;;7.63;2.10;;;20.60;1.00;;;;;;4973006;28;20457;-67
2022/09/15 10:46:44;;;;;;;4.07;1.50;;;20.70;1.00;;;;;;4973830;28;20459;-67
2022/09/15 10:49:26;;;;;;;20.87;3.53;;;20.70;1.00;;;;;;4973666;28;20693;-67
2022/09/15 10:52:29;;;;;;;15.93;2.93;;;20.70;1.00;;;;;;4972385;28;20516;-67
2022/09/15 10:55:14;;;;;;;23.33;4.37;;;20.80;99.90;;;;;;4971894;28;20843;-67
2022/09/15 10:57:57;;;;;;;4.10;2.33;;;20.80;99.90;;;;;;4971912;28;20448;-66
2022/09/15 11:00:25;;;;;;;11.10;4.50;;;20.80;99.90;;;;;;4972036;28;20506;-67
2022/09/15 11:02:56;;;;;;;8.77;2.40;;;20.80;99.90;;;;;;4972288;28;20786;-67
2022/09/15 11:05:28;;;;;;;18.70;3.40;;;20.70;1.00;;;;;;4971494;28;21066;-67
2022/09/15 11:08:18;;;;;;;12.07;3.10;;;20.70;1.00;;;;;;4972080;28;20504;-67
2022/09/15 11:10:52;;;;;;;7.10;2.10;;;20.70;1.00;;;;;;4974826;28;20881;-66
2022/09/15 11:13:33;;;;;;;12.80;3.43;;;20.80;1.00;;;;;;4991599;28;20420;-67
2022/09/15 11:16:18;;;;;;;12.63;3.90;;;20.80;1.00;;;;;;4972073;28;20412;-67
2022/09/15 11:19:35;;;;;;;7.50;2.93;;;20.80;1.00;;;;;;4964361;28;20544;-68
2022/09/15 11:22:17;;;;;;;8.37;2.63;;;20.80;99.90;;;;;;4929288;28;20485;-67
2022/09/15 11:24:57;;;;;;;12.10;3.47;;;20.90;99.90;;;;;;4971527;28;20416;-67
2022/09/15 11:27:35;;;;;;;9.80;2.80;;;20.90;99.90;;;;;;4971632;28;20886;-68
2022/09/15 11:30:03;;;;;;;4.90;2.53;;;20.90;99.90;;;;;;4971718;28;20409;-68
2022/09/15 11:32:31;;;;;;;22.90;6.27;;;20.90;99.90;;;;;;4971720;28;20417;-68
2022/09/15 11:35:22;;;;;;;11.77;5.23;;;21.00;99.90;;;;;;4971934;28;21011;-68
2022/09/15 11:37:50;;;;;;;32.60;4.93;;;21.10;99.90;;;;;;4971757;28;20743;-67
2022/09/15 11:40:20;;;;;;;15.50;4.67;;;21.30;1.00;;;;;;4971902;28;20491;-66
2022/09/15 11:43:09;;;;;;;8.10;2.90;;;21.50;99.90;;;;;;4971958;28;20413;-67
2022/09/15 11:45:39;;;;;;;5.57;3.50;;;21.70;1.00;;;;;;4966804;28;20433;-67
2022/09/15 11:48:14;;;;;;;3.67;2.57;;;21.80;1.00;;;;;;4982825;28;20473;-67
2022/09/15 11:50:44;;;;;;;19.80;4.20;;;22.20;99.90;;;;;;4995768;28;20927;-67
2022/09/15 11:53:20;;;;;;;37.00;6.17;;;22.50;1.00;;;;;;4995424;28;20745;-66
2022/09/15 11:56:09;;;;;;;21.30;4.17;;;22.80;1.00;;;;;;4995591;28;20451;-66
2022/09/15 11:59:00;;;;;;;10.60;2.90;;;22.70;1.00;;;;;;4982792;28;20503;-67
2022/09/15 12:01:58;;;;;;;32.97;4.97;;;22.70;1.00;;;;;;4976354;28;20504;-66
2022/09/15 12:04:32;;;;;;;17.00;3.77;;;22.70;1.00;;;;;;4971770;28;20476;-66
2022/09/15 12:07:09;;;;;;;19.73;4.30;;;22.60;1.00;;;;;;4975695;28;20444;-66
2022/09/15 12:09:34;;;;;;;13.73;3.67;;;22.50;99.90;;;;;;4975546;28;20405;-65
2022/09/15 12:12:07;;;;;;;10.17;2.77;;;22.30;1.00;;;;;;4975472;28;20411;-65
2022/09/15 12:14:45;;;;;;;10.83;3.60;;;22.20;1.00;;;;;;4975467;28;20272;-66
2022/09/15 12:17:54;;;;;;;13.63;3.70;;;22.00;1.00;;;;;;4975307;28;20416;-66
2022/09/15 12:20:34;;;;;;;14.60;4.97;;;21.60;99.90;;;;;;4969544;28;20436;-66
2022/09/15 12:23:32;;;;;;;8.90;2.53;;;21.40;99.90;;;;;;4975118;28;20415;-66
2022/09/15 12:26:18;;;;;;;4.77;3.00;;;21.10;1.00;;;;;;4975394;28;20401;-66
2022/09/15 12:28:50;;;;;;;13.63;3.90;;;20.90;99.90;;;;;;4975173;28;20408;-67
2022/09/15 12:31:22;;;;;;;53.30;5.93;;;20.80;99.90;;;;;;4974983;28;20428;-67
2022/09/15 12:34:02;;;;;;;6.17;3.33;;;20.80;99.90;;;;;;4974785;28;20432;-67
2022/09/15 12:36:45;;;;;;;12.03;4.07;;;20.70;1.00;;;;;;4975275;28;20516;-66
2022/09/15 12:39:31;;;;;;;14.33;4.07;;;20.70;1.00;;;;;;4974620;28;20456;-66
2022/09/15 12:42:17;;;;;;;10.33;2.70;;;20.70;99.90;;;;;;4974841;28;20511;-67
2022/09/15 12:45:05;;;;;;;4.67;2.77;;;20.70;99.90;;;;;;4955759;28;20451;-65
2022/09/15 12:47:48;;;;;;;4.23;2.53;;;20.50;99.90;;;;;;4955233;28;20401;-66
2022/09/15 12:50:28;;;;;;;3.53;2.53;;;20.40;1.00;;;;;;4955367;28;20400;-67
2022/09/15 12:52:57;;;;;;;6.83;3.27;;;20.30;1.00;;;;;;4955459;28;20926;-66
2022/09/15 12:55:43;;;;;;;42.83;7.50;;;20.20;1.00;;;;;;4955234;29;20425;-66
2022/09/15 12:58:17;;;;;;;16.10;4.30;;;20.10;1.00;;;;;;4955199;28;20449;-66
2022/09/15 13:00:44;;;;;;;9.47;2.90;;;20.20;1.00;;;;;;4955262;28;20401;-66
2022/09/15 13:03:38;;;;;;;19.20;4.47;;;20.00;1.00;;;;;;4955445;28;20422;-66
2022/09/15 13:06:29;;;;;;;9.27;4.23;;;19.90;1.00;;;;;;4928919;28;20787;-66
2022/09/15 13:09:01;;;;;;;10.70;4.67;;;19.90;1.00;;;;;;4954857;28;20418;-64
2022/09/15 13:11:33;;;;;;;5.40;2.23;;;19.90;1.00;;;;;;4955157;28;20524;-67
2022/09/15 13:14:13;;;;;;;9.10;3.70;;;19.90;1.00;;;;;;4955152;28;20521;-64
2022/09/15 13:16:39;;;;;;;11.90;2.30;;;19.90;99.90;;;;;;4955056;28;20410;-64
2022/09/15 13:19:08;;;;;;;6.03;1.70;;;19.90;99.90;;;;;;4953889;29;20487;-66